Wetterdaten: Donnerstag, 30.12.2010
Datum Zeit Temp. A. Feuchte A. Luftdruck Regen Wind Richtung Richtung Sonnenschein UV Solar Windben
30.12.2010 00:00 -6,3 C 87 % 1024,6 hPa 0,0 mm 0,0 km/h (0 Bft) N 0 0 min 0 UV-I 0 W/m 0,0 km/h (0 Bft)
30.12.2010 00:10 -6,4 C 87 % 1024,6 hPa 0,0 mm 0,0 km/h (0 Bft) N 0 0 min 0 UV-I 0 W/m 0,0 km/h (0 Bft)
30.12.2010 00:20 -6,6 C 87 % 1024,5 hPa 0,0 mm 0,0 km/h (0 Bft) N 0 0 min 0 UV-I 0 W/m 0,0 km/h (0 Bft)
30.12.2010 00:30 -6,7 C 87 % 1024,6 hPa 0,0 mm 0,0 km/h (0 Bft) N 0 0 min 0 UV-I 0 W/m 0,0 km/h (0 Bft)
30.12.2010 00:40 -6,8 C 87 % 1024,6 hPa 0,0 mm 0,0 km/h (0 Bft) N 0 0 min 0 UV-I 0 W/m 0,0 km/h (0 Bft)
30.12.2010 00:50 -6,8 C 87 % 1024,7 hPa 0,0 mm 0,0 km/h (0 Bft) N 0 0 min 0 UV-I 0 W/m 0,0 km/h (0 Bft)
30.12.2010 01:00 -6,9 C 87 % 1024,7 hPa 0,0 mm 0,0 km/h (0 Bft) N 0 0 min 0 UV-I 0 W/m 0,0 km/h (0 Bft)
30.12.2010 01:10 -7,1 C 87 % 1024,6 hPa 0,0 mm 0,0 km/h (0 Bft) N 0 0 min 0 UV-I 0 W/m 0,0 km/h (0 Bft)
30.12.2010 01:20 -7,2 C 88 % 1024,6 hPa 0,0 mm 0,0 km/h (0 Bft) N 0 0 min 0 UV-I 0 W/m 0,0 km/h (0 Bft)
30.12.2010 01:30 -7,3 C 88 % 1024,5 hPa 0,0 mm 0,0 km/h (0 Bft) N 0 0 min 0 UV-I 0 W/m 0,0 km/h (0 Bft)
30.12.2010 01:40 -7,3 C 87 % 1024,5 hPa 0,0 mm 0,0 km/h (0 Bft) N 0 0 min 0 UV-I 0 W/m 0,0 km/h (0 Bft)
30.12.2010 01:50 -7,4 C 88 % 1024,5 hPa 0,0 mm 0,0 km/h (0 Bft) N 0 0 min 0 UV-I 0 W/m 0,0 km/h (0 Bft)
30.12.2010 02:00 -7,6 C 88 % 1024,6 hPa 0,0 mm 0,0 km/h (0 Bft) N 0 0 min 0 UV-I 0 W/m 0,0 km/h (0 Bft)
30.12.2010 02:10 -7,7 C 87 % 1024,6 hPa 0,0 mm 0,0 km/h (0 Bft) N 0 0 min 0 UV-I 0 W/m 0,0 km/h (0 Bft)
30.12.2010 02:20 -7,8 C 88 % 1024,6 hPa 0,0 mm 0,0 km/h (0 Bft) N 0 0 min 0 UV-I 0 W/m 0,0 km/h (0 Bft)
30.12.2010 02:30 -7,9 C 88 % 1024,6 hPa 0,0 mm 0,0 km/h (0 Bft) N 0 0 min 0 UV-I 0 W/m 0,0 km/h (0 Bft)
30.12.2010 02:40 -8,0 C 88 % 1024,7 hPa 0,0 mm 0,0 km/h (0 Bft) N 0 0 min 0 UV-I 0 W/m 0,0 km/h (0 Bft)
30.12.2010 02:50 -8,1 C 88 % 1024,7 hPa 0,0 mm 0,0 km/h (0 Bft) N 0 0 min 0 UV-I 0 W/m 0,0 km/h (0 Bft)
30.12.2010 03:00 -8,2 C 88 % 1024,6 hPa 0,0 mm 0,0 km/h (0 Bft) N 0 0 min 0 UV-I 0 W/m 0,0 km/h (0 Bft)
30.12.2010 03:10 -8,2 C 88 % 1024,6 hPa 0,0 mm 0,0 km/h (0 Bft) N 0 0 min 0 UV-I 0 W/m 0,0 km/h (0 Bft)
30.12.2010 03:20 -8,3 C 88 % 1024,7 hPa 0,0 mm 0,0 km/h (0 Bft) N 0 0 min 0 UV-I 0 W/m 0,0 km/h (0 Bft)
30.12.2010 03:30 -8,4 C 88 % 1024,6 hPa 0,0 mm 0,0 km/h (0 Bft) N 0 0 min 0 UV-I 0 W/m 0,0 km/h (0 Bft)
30.12.2010 03:40 -8,4 C 88 % 1024,6 hPa 0,0 mm 0,0 km/h (0 Bft) N 0 0 min 0 UV-I 0 W/m 0,0 km/h (0 Bft)
30.12.2010 03:50 -8,6 C 88 % 1024,6 hPa 0,0 mm 0,0 km/h (0 Bft) N 0 0 min 0 UV-I 0 W/m 0,0 km/h (0 Bft)
30.12.2010 04:00 -8,6 C 88 % 1024,6 hPa 0,0 mm 0,0 km/h (0 Bft) N 0 0 min 0 UV-I 0 W/m 0,0 km/h (0 Bft)
30.12.2010 04:10 -8,7 C 88 % 1024,7 hPa 0,0 mm 0,0 km/h (0 Bft) N 0 0 min 0 UV-I 0 W/m 0,0 km/h (0 Bft)
30.12.2010 04:20 -8,8 C 88 % 1024,8 hPa 0,0 mm 0,0 km/h (0 Bft) N 0 0 min 0 UV-I 0 W/m 0,0 km/h (0 Bft)
30.12.2010 04:30 -8,9 C 88 % 1024,8 hPa 0,0 mm 0,0 km/h (0 Bft) N 0 0 min 0 UV-I 0 W/m 0,0 km/h (0 Bft)
30.12.2010 04:40 -8,9 C 88 % 1025,1 hPa 0,0 mm 0,0 km/h (0 Bft) N 0 0 min 0 UV-I 0 W/m 0,0 km/h (0 Bft)
30.12.2010 04:50 -9,0 C 88 % 1025,0 hPa 0,0 mm 0,0 km/h (0 Bft) N 0 0 min 0 UV-I 0 W/m 0,0 km/h (0 Bft)
30.12.2010 05:00 -9,1 C 88 % 1024,8 hPa 0,0 mm 0,0 km/h (0 Bft) N 0 0 min 0 UV-I 0 W/m 0,0 km/h (0 Bft)
30.12.2010 05:10 -9,1 C 88 % 1025,0 hPa 0,0 mm 0,0 km/h (0 Bft) N 0 0 min 0 UV-I 0 W/m 0,0 km/h (0 Bft)
30.12.2010 05:20 -9,1 C 88 % 1025,1 hPa 0,0 mm 0,0 km/h (0 Bft) N 0 0 min 0 UV-I 0 W/m 0,0 km/h (0 Bft)
30.12.2010 05:30 -9,2 C 88 % 1025,1 hPa 0,0 mm 0,0 km/h (0 Bft) N 0 0 min 0 UV-I 0 W/m 0,0 km/h (0 Bft)
30.12.2010 05:40 -9,2 C 88 % 1025,1 hPa 0,0 mm 0,0 km/h (0 Bft) N 0 0 min 0 UV-I 0 W/m 0,0 km/h (0 Bft)
30.12.2010 05:50 -9,3 C 88 % 1025,0 hPa 0,0 mm 0,0 km/h (0 Bft) N 0 0 min 0 UV-I 0 W/m 0,0 km/h (0 Bft)
30.12.2010 06:00 -9,3 C 88 % 1025,0 hPa 0,0 mm 0,0 km/h (0 Bft) N 0 0 min 0 UV-I 0 W/m 0,0 km/h (0 Bft)
30.12.2010 06:10 -9,4 C 88 % 1025,1 hPa 0,0 mm 0,0 km/h (0 Bft) O-SO 112 0 min 0 UV-I 0 W/m 1,6 km/h (1 Bft)
30.12.2010 06:20 -9,4 C 88 % 1025,1 hPa 0,0 mm 0,0 km/h (0 Bft) N 0 0 min 0 UV-I 0 W/m 0,0 km/h (0 Bft)
30.12.2010 06:30 -9,4 C 88 % 1025,1 hPa 0,0 mm 0,0 km/h (0 Bft) N 0 0 min 0 UV-I 0 W/m 0,0 km/h (0 Bft)
30.12.2010 06:40 -9,4 C 88 % 1025,1 hPa 0,0 mm 0,0 km/h (0 Bft) N 0 0 min 0 UV-I 0 W/m 0,0 km/h (0 Bft)
30.12.2010 06:50 -9,4 C 88 % 1025,0 hPa 0,0 mm 0,0 km/h (0 Bft) O-SO 112 0 min 0 UV-I 0 W/m 1,6 km/h (1 Bft)
30.12.2010 07:00 -9,4 C 89 % 1024,9 hPa 0,0 mm 0,0 km/h (0 Bft) O-SO 112 0 min 0 UV-I 0 W/m 1,6 km/h (1 Bft)
30.12.2010 07:10 -9,3 C 89 % 1025,0 hPa 0,0 mm 0,0 km/h (0 Bft) N 0 0 min 0 UV-I 0 W/m 0,0 km/h (0 Bft)
30.12.2010 07:20 -9,0 C 89 % 1024,8 hPa 0,0 mm 0,0 km/h (0 Bft) O-SO 112 0 min 0 UV-I 0 W/m 1,6 km/h (1 Bft)
30.12.2010 07:30 -8,7 C 90 % 1024,8 hPa 0,0 mm 0,0 km/h (0 Bft) O-SO 112 0 min 0 UV-I 0 W/m 1,6 km/h (1 Bft)
30.12.2010 07:40 -8,4 C 90 % 1024,7 hPa 0,0 mm 0,0 km/h (0 Bft) N 0 0 min 0 UV-I 0 W/m 0,0 km/h (0 Bft)
30.12.2010 07:50 -8,1 C 90 % 1024,9 hPa 0,0 mm 0,0 km/h (0 Bft) O-SO 112 0 min 0 UV-I 0 W/m 1,6 km/h (1 Bft)
30.12.2010 08:00 -7,8 C 90 % 1024,9 hPa 0,0 mm 0,0 km/h (0 Bft) N 0 0 min 0 UV-I 0 W/m 0,0 km/h (0 Bft)
30.12.2010 08:10 -7,5 C 90 % 1024,8 hPa 0,0 mm 0,0 km/h (0 Bft) O-SO 112 0 min 0 UV-I 0 W/m 1,6 km/h (1 Bft)
30.12.2010 08:20 -7,3 C 90 % 1025,1 hPa 0,0 mm 0,0 km/h (0 Bft) N 0 0 min 0 UV-I 0 W/m 0,0 km/h (0 Bft)
30.12.2010 08:50 -6,6 C 90 % 1025,3 hPa 0,0 mm 0,0 km/h (0 Bft) O-SO 119 0 min 0 UV-I 2 W/m 0,0 km/h (0 Bft)
30.12.2010 09:00 -6,6 C 90 % 1025,3 hPa 0,0 mm 0,0 km/h (0 Bft) N 0 0 min 0 UV-I 11 W/m 0,0 km/h (0 Bft)
30.12.2010 09:10 -6,4 C 90 % 1025,4 hPa 0,0 mm 0,0 km/h (0 Bft) N 0 0 min 0 UV-I 14 W/m 0,0 km/h (0 Bft)
30.12.2010 09:20 -6,4 C 90 % 1025,6 hPa 0,0 mm 0,0 km/h (0 Bft) N 0 0 min 0 UV-I 30 W/m 0,0 km/h (0 Bft)
30.12.2010 09:30 -6,4 C 90 % 1025,9 hPa 0,0 mm 0,0 km/h (0 Bft) N 0 0 min 0 UV-I 35 W/m 0,0 km/h (0 Bft)
30.12.2010 09:40 -6,3 C 90 % 1025,9 hPa 0,0 mm 0,0 km/h (0 Bft) N 0 0 min 0 UV-I 35 W/m 0,0 km/h (0 Bft)
30.12.2010 09:50 -6,3 C 91 % 1025,7 hPa 0,0 mm 0,0 km/h (0 Bft) O-SO 112 0 min 0 UV-I 46 W/m 1,6 km/h (1 Bft)
30.12.2010 10:00 -6,2 C 91 % 1025,8 hPa 0,0 mm 0,0 km/h (0 Bft) O-SO 112 0 min 0 UV-I 58 W/m 1,6 km/h (1 Bft)
30.12.2010 10:10 -5,9 C 91 % 1025,8 hPa 0,0 mm 0,0 km/h (0 Bft) O-SO 112 0 min 0 UV-I 77 W/m 1,6 km/h (1 Bft)
30.12.2010 10:20 -5,6 C 91 % 1025,9 hPa 0,0 mm 0,0 km/h (0 Bft) O-SO 112 0 min 0 UV-I 91 W/m 3,2 km/h (1 Bft)
30.12.2010 10:30 -5,3 C 91 % 1025,9 hPa 0,0 mm 0,0 km/h (0 Bft) O-SO 112 0 min 0 UV-I 81 W/m 3,2 km/h (1 Bft)
30.12.2010 10:40 -4,9 C 91 % 1025,9 hPa 0,0 mm 0,0 km/h (0 Bft) O-SO 112 0 min 0 UV-I 109 W/m 3,2 km/h (1 Bft)
30.12.2010 10:50 -4,6 C 91 % 1025,8 hPa 0,0 mm 0,0 km/h (0 Bft) O-SO 112 10 min 0 UV-I 135 W/m 3,2 km/h (1 Bft)
30.12.2010 11:00 -4,2 C 92 % 1025,6 hPa 0,0 mm 0,0 km/h (0 Bft) SO 135 0 min 0 UV-I 88 W/m 4,8 km/h (1 Bft)
30.12.2010 11:10 -3,9 C 92 % 1025,5 hPa 0,0 mm 1,6 km/h (1 Bft) S 180 0 min 0 UV-I 60 W/m 4,8 km/h (1 Bft)
30.12.2010 11:20 -3,7 C 92 % 1025,4 hPa 0,0 mm 0,0 km/h (0 Bft) S 180 0 min 0 UV-I 111 W/m 3,2 km/h (1 Bft)
30.12.2010 11:30 -3,4 C 91 % 1025,4 hPa 0,0 mm 0,0 km/h (0 Bft) S 180 0 min 0 UV-I 111 W/m 1,6 km/h (1 Bft)
30.12.2010 11:40 -3,2 C 92 % 1025,4 hPa 0,0 mm 0,0 km/h (0 Bft) S 180 0 min 0 UV-I 93 W/m 1,6 km/h (1 Bft)
30.12.2010 11:50 -2,9 C 92 % 1025,3 hPa 0,0 mm 0,0 km/h (0 Bft) N 0 0 min 0 UV-I 91 W/m 0,0 km/h (0 Bft)
30.12.2010 12:00 -2,7 C 92 % 1025,2 hPa 0,0 mm 0,0 km/h (0 Bft) S 180 0 min 0 UV-I 83 W/m 3,2 km/h (1 Bft)
30.12.2010 12:10 -2,6 C 92 % 1025,2 hPa 0,0 mm 0,0 km/h (0 Bft) S 180 0 min 0 UV-I 69 W/m 1,6 km/h (1 Bft)
30.12.2010 12:20 -2,3 C 92 % 1025,0 hPa 0,0 mm 0,0 km/h (0 Bft) S 180 0 min 0 UV-I 81 W/m 1,6 km/h (1 Bft)
30.12.2010 12:30 -2,1 C 92 % 1025,0 hPa 0,0 mm 0,0 km/h (0 Bft) N 0 0 min 0 UV-I 79 W/m 0,0 km/h (0 Bft)
30.12.2010 12:40 -1,9 C 92 % 1025,0 hPa 0,0 mm 0,0 km/h (0 Bft) N 0 0 min 0 UV-I 83 W/m 0,0 km/h (0 Bft)
30.12.2010 12:50 -1,8 C 92 % 1025,0 hPa 0,0 mm 0,0 km/h (0 Bft) S 180 0 min 0 UV-I 81 W/m 1,6 km/h (1 Bft)
30.12.2010 13:00 -1,6 C 92 % 1024,9 hPa 0,0 mm 0,0 km/h (0 Bft) S 180 0 min 0 UV-I 81 W/m 3,2 km/h (1 Bft)
30.12.2010 13:10 -1,4 C 92 % 1025,0 hPa 0,0 mm 0,0 km/h (0 Bft) S 180 0 min 0 UV-I 98 W/m 3,2 km/h (1 Bft)
30.12.2010 13:20 -1,3 C 92 % 1024,8 hPa 0,0 mm 0,0 km/h (0 Bft) S 180 0 min 0 UV-I 130 W/m 1,6 km/h (1 Bft)
30.12.2010 13:30 -1,2 C 91 % 1024,7 hPa 0,0 mm 0,0 km/h (0 Bft) N 0 0 min 0 UV-I 120 W/m 0,0 km/h (0 Bft)
30.12.2010 13:40 -1,1 C 91 % 1024,7 hPa 0,0 mm 0,0 km/h (0 Bft) S 180 0 min 0 UV-I 81 W/m 1,6 km/h (1 Bft)
30.12.2010 13:50 -0,9 C 91 % 1024,4 hPa 0,0 mm 0,0 km/h (0 Bft) S 180 0 min 0 UV-I 76 W/m 1,6 km/h (1 Bft)
30.12.2010 14:00 -0,9 C 91 % 1024,4 hPa 0,0 mm 0,0 km/h (0 Bft) N 0 0 min 0 UV-I 70 W/m 0,0 km/h (0 Bft)
30.12.2010 14:10 -0,8 C 91 % 1024,1 hPa 0,0 mm 0,0 km/h (0 Bft) S 180 0 min 0 UV-I 72 W/m 1,6 km/h (1 Bft)
30.12.2010 14:20 -0,7 C 91 % 1023,9 hPa 0,0 mm 0,0 km/h (0 Bft) S 180 0 min 0 UV-I 76 W/m 3,2 km/h (1 Bft)
30.12.2010 14:30 -0,7 C 90 % 1024,1 hPa 0,0 mm 0,0 km/h (0 Bft) S 180 0 min 0 UV-I 79 W/m 1,6 km/h (1 Bft)
30.12.2010 14:40 -0,6 C 90 % 1024,3 hPa 0,0 mm 0,0 km/h (0 Bft) S 180 10 min 0 UV-I 135 W/m 3,2 km/h (1 Bft)
30.12.2010 14:50 -0,5 C 90 % 1024,4 hPa 0,0 mm 0,0 km/h (0 Bft) S 180 10 min 0 UV-I 134 W/m 1,6 km/h (1 Bft)
30.12.2010 15:00 -0,3 C 90 % 1024,3 hPa 0,0 mm 0,0 km/h (0 Bft) S 180 10 min 0 UV-I 97 W/m 3,2 km/h (1 Bft)
30.12.2010 15:10 -0,2 C 90 % 1024,3 hPa 0,0 mm 0,0 km/h (0 Bft) S 180 10 min 0 UV-I 102 W/m 1,6 km/h (1 Bft)
30.12.2010 15:20 -0,2 C 89 % 1024,3 hPa 0,0 mm 0,0 km/h (0 Bft) S 180 10 min 0 UV-I 79 W/m 3,2 km/h (1 Bft)
30.12.2010 15:30 -0,2 C 89 % 1024,2 hPa 0,0 mm 0,0 km/h (0 Bft) S 180 10 min 0 UV-I 53 W/m 3,2 km/h (1 Bft)
30.12.2010 15:40 -0,2 C 88 % 1024,2 hPa 0,0 mm 0,0 km/h (0 Bft) N 0 0 min 0 UV-I 32 W/m 0,0 km/h (0 Bft)
30.12.2010 15:50 -0,3 C 88 % 1024,2 hPa 0,0 mm 0,0 km/h (0 Bft) N 0 0 min 0 UV-I 19 W/m 0,0 km/h (0 Bft)
30.12.2010 16:00 -0,5 C 87 % 1024,3 hPa 0,0 mm 0,0 km/h (0 Bft) S 188 0 min 0 UV-I 14 W/m 0,0 km/h (0 Bft)
30.12.2010 16:10 -0,5 C 87 % 1024,5 hPa 0,0 mm 0,0 km/h (0 Bft) S 180 0 min 0 UV-I 14 W/m 1,6 km/h (1 Bft)
30.12.2010 16:20 -0,6 C 87 % 1024,3 hPa 0,0 mm 0,0 km/h (0 Bft) N 0 0 min 0 UV-I 11 W/m 0,0 km/h (0 Bft)
30.12.2010 16:30 -0,7 C 87 % 1024,5 hPa 0,0 mm 0,0 km/h (0 Bft) N 0 0 min 0 UV-I 5 W/m 0,0 km/h (0 Bft)
30.12.2010 16:40 -0,7 C 86 % 1024,8 hPa 0,0 mm 0,0 km/h (0 Bft) S 180 0 min 0 UV-I 0 W/m 3,2 km/h (1 Bft)
30.12.2010 16:50 -0,8 C 86 % 1024,8 hPa 0,0 mm 0,0 km/h (0 Bft) S 180 0 min 0 UV-I 0 W/m 1,6 km/h (1 Bft)
30.12.2010 17:00 -0,9 C 87 % 1024,8 hPa 0,0 mm 0,0 km/h (0 Bft) S 180 0 min 0 UV-I 0 W/m 1,6 km/h (1 Bft)
30.12.2010 17:10 -0,9 C 87 % 1025,0 hPa 0,0 mm 0,0 km/h (0 Bft) S 180 0 min 0 UV-I 0 W/m 1,6 km/h (1 Bft)
30.12.2010 17:20 -1,0 C 87 % 1025,1 hPa 0,0 mm 0,0 km/h (0 Bft) S 180 0 min 0 UV-I 0 W/m 1,6 km/h (1 Bft)
30.12.2010 17:30 -1,1 C 87 % 1024,9 hPa 0,0 mm 0,0 km/h (0 Bft) S 180 0 min 0 UV-I 0 W/m 4,8 km/h (1 Bft)
30.12.2010 17:40 -1,1 C 87 % 1024,8 hPa 0,0 mm 1,6 km/h (1 Bft) S 180 0 min 0 UV-I 0 W/m 4,8 km/h (1 Bft)
30.12.2010 17:50 -1,2 C 87 % 1024,7 hPa 0,0 mm 0,0 km/h (0 Bft) S 180 0 min 0 UV-I 0 W/m 3,2 km/h (1 Bft)
30.12.2010 18:00 -1,3 C 87 % 1024,7 hPa 0,0 mm 0,0 km/h (0 Bft) S 180 0 min 0 UV-I 0 W/m 3,2 km/h (1 Bft)
30.12.2010 18:10 -1,3 C 88 % 1024,7 hPa 0,0 mm 0,0 km/h (0 Bft) S 180 0 min 0 UV-I 0 W/m 3,2 km/h (1 Bft)
30.12.2010 18:20 -1,4 C 88 % 1024,8 hPa 0,0 mm 0,0 km/h (0 Bft) N 0 0 min 0 UV-I 0 W/m 0,0 km/h (0 Bft)
30.12.2010 18:30 -1,4 C 88 % 1024,6 hPa 0,0 mm 0,0 km/h (0 Bft) N 0 0 min 0 UV-I 0 W/m 0,0 km/h (0 Bft)
30.12.2010 18:40 -1,5 C 88 % 1024,4 hPa 0,0 mm 0,0 km/h (0 Bft) S 180 0 min 0 UV-I 0 W/m 3,2 km/h (1 Bft)
30.12.2010 18:50 -1,5 C 88 % 1024,4 hPa 0,0 mm 0,0 km/h (0 Bft) S 180 0 min 0 UV-I 0 W/m 4,8 km/h (1 Bft)
30.12.2010 19:00 -1,5 C 88 % 1024,4 hPa 0,0 mm 1,6 km/h (1 Bft) S-SW 202 0 min 0 UV-I 0 W/m 4,8 km/h (1 Bft)
30.12.2010 19:10 -1,5 C 88 % 1024,3 hPa 0,0 mm 0,0 km/h (0 Bft) S-SW 202 0 min 0 UV-I 0 W/m 3,2 km/h (1 Bft)
30.12.2010 19:20 -1,5 C 88 % 1024,3 hPa 0,0 mm 0,0 km/h (0 Bft) S-SW 202 0 min 0 UV-I 0 W/m 1,6 km/h (1 Bft)
30.12.2010 19:30 -1,5 C 89 % 1024,2 hPa 0,0 mm 0,0 km/h (0 Bft) S-SW 202 0 min 0 UV-I 0 W/m 1,6 km/h (1 Bft)
30.12.2010 19:40 -1,5 C 89 % 1024,3 hPa 0,0 mm 0,0 km/h (0 Bft) S-SW 202 0 min 0 UV-I 0 W/m 1,6 km/h (1 Bft)
30.12.2010 19:50 -1,4 C 89 % 1024,3 hPa 0,0 mm 0,0 km/h (0 Bft) S-SW 202 0 min 0 UV-I 0 W/m 3,2 km/h (1 Bft)
30.12.2010 20:00 -1,4 C 89 % 1024,2 hPa 0,0 mm 0,0 km/h (0 Bft) S-SW 202 0 min 0 UV-I 0 W/m 3,2 km/h (1 Bft)
30.12.2010 20:10 -1,4 C 89 % 1024,1 hPa 0,0 mm 0,0 km/h (0 Bft) S-SW 202 0 min 0 UV-I 0 W/m 3,2 km/h (1 Bft)
30.12.2010 20:20 -1,3 C 89 % 1024,0 hPa 0,0 mm 0,0 km/h (0 Bft) S-SW 202 0 min 0 UV-I 0 W/m 1,6 km/h (1 Bft)
30.12.2010 20:30 -1,3 C 89 % 1024,0 hPa 0,0 mm 0,0 km/h (0 Bft) N 0 0 min 0 UV-I 0 W/m 0,0 km/h (0 Bft)
30.12.2010 20:40 -1,3 C 89 % 1024,0 hPa 0,0 mm 0,0 km/h (0 Bft) S-SW 202 0 min 0 UV-I 0 W/m 1,6 km/h (1 Bft)
30.12.2010 20:50 -1,3 C 89 % 1023,9 hPa 0,0 mm 0,0 km/h (0 Bft) N 0 0 min 0 UV-I 0 W/m 0,0 km/h (0 Bft)
30.12.2010 21:00 -1,3 C 89 % 1024,0 hPa 0,0 mm 0,0 km/h (0 Bft) S-SW 202 0 min 0 UV-I 0 W/m 1,6 km/h (1 Bft)
30.12.2010 21:10 -1,3 C 89 % 1023,8 hPa 0,0 mm 0,0 km/h (0 Bft) N 0 0 min 0 UV-I 0 W/m 0,0 km/h (0 Bft)
30.12.2010 21:20 -1,3 C 89 % 1023,9 hPa 0,0 mm 0,0 km/h (0 Bft) S-SW 202 0 min 0 UV-I 0 W/m 1,6 km/h (1 Bft)
30.12.2010 21:30 -1,3 C 89 % 1023,9 hPa 0,0 mm 0,0 km/h (0 Bft) N 0 0 min 0 UV-I 0 W/m 0,0 km/h (0 Bft)
30.12.2010 21:40 -1,3 C 90 % 1024,0 hPa 0,0 mm 0,0 km/h (0 Bft) S-SW 202 0 min 0 UV-I 0 W/m 1,6 km/h (1 Bft)
30.12.2010 21:50 -1,3 C 90 % 1023,9 hPa 0,0 mm 0,0 km/h (0 Bft) S-SW 202 0 min 0 UV-I 0 W/m 1,6 km/h (1 Bft)
30.12.2010 22:00 -1,3 C 90 % 1024,0 hPa 0,0 mm 0,0 km/h (0 Bft) S-SW 202 0 min 0 UV-I 0 W/m 3,2 km/h (1 Bft)
30.12.2010 22:10 -1,3 C 90 % 1024,1 hPa 0,0 mm 0,0 km/h (0 Bft) S-SW 202 0 min 0 UV-I 0 W/m 3,2 km/h (1 Bft)
30.12.2010 22:20 -1,3 C 90 % 1024,2 hPa 0,0 mm 0,0 km/h (0 Bft) S-SW 202 0 min 0 UV-I 0 W/m 1,6 km/h (1 Bft)
30.12.2010 22:30 -1,3 C 90 % 1024,1 hPa 0,0 mm 0,0 km/h (0 Bft) S-SW 202 0 min 0 UV-I 0 W/m 1,6 km/h (1 Bft)
30.12.2010 22:40 -1,3 C 90 % 1024,0 hPa 0,0 mm 0,0 km/h (0 Bft) S-SW 202 0 min 0 UV-I 0 W/m 1,6 km/h (1 Bft)
30.12.2010 22:50 -1,2 C 90 % 1024,1 hPa 0,0 mm 0,0 km/h (0 Bft) S-SW 202 0 min 0 UV-I 0 W/m 1,6 km/h (1 Bft)
30.12.2010 23:00 -1,2 C 90 % 1024,1 hPa 0,0 mm 0,0 km/h (0 Bft) N 0 0 min 0 UV-I 0 W/m 0,0 km/h (0 Bft)
30.12.2010 23:10 -1,2 C 90 % 1024,1 hPa 0,0 mm 0,0 km/h (0 Bft) N 0 0 min 0 UV-I 0 W/m 0,0 km/h (0 Bft)
30.12.2010 23:20 -1,2 C 90 % 1024,2 hPa 0,0 mm 0,0 km/h (0 Bft) N 0 0 min 0 UV-I 0 W/m 0,0 km/h (0 Bft)
30.12.2010 23:30 -1,1 C 90 % 1024,0 hPa 0,0 mm 0,0 km/h (0 Bft) S-SW 202 0 min 0 UV-I 0 W/m 1,6 km/h (1 Bft)
30.12.2010 23:40 -1,1 C 90 % 1024,1 hPa 0,0 mm 0,0 km/h (0 Bft) N 0 0 min 0 UV-I 0 W/m 0,0 km/h (0 Bft)
30.12.2010 23:50 -1,0 C 90 % 1024,1 hPa 0,0 mm 0,0 km/h (0 Bft) N 0 0 min 0 UV-I 0 W/m 0,0 km/h (0 Bft)
_ Min-Zeit 06:50 16:40 21:10 - 00:00 - - - - - 00:00
Minimum _ -9,5 C 86 % 1023,8 hPa - 0,0 km/h (0 Bft) - - - - - 0,0 km/h (0 Bft)
_ Max-Zeit 15:20 11:00 09:30 00:00 11:10 - - 10:50 00:00 10:50 11:00
Maximum _ -0,1 C 92 % 1025,9 hPa 0,0 mm 1,6 km/h
S (1 Bft)
- - 10 min 0 UV-I 135 W/m 4,8 km/h
SO (1 Bft)
Durchschnitt _ -4,2 C 89 % 1024,7 hPa #0,0 mm 0,0 km/h (0 Bft) S - #1:10 h 0 UV-I 71 W/m 1,2 km/h (1 Bft)